Zagreb — 9AA5910 — position and weather

sailwx.info

Track history (hours):
 
Tides and Currents Weather Stations Pressure Air Temp Water Temp Dewpoint Dewpoint Depression Visibility Wind Speed Wind Dir Waves Ship Positions

Zagreb

Last reported at 2014-Jul-26 03:33 UTC. Time now 2014-Jul-26 05:06 UTC.
Position N 59°52' E 028°27'.

Length 229 m; draft 8 m.

Type: Cargo ship. MMSI: 238249000.

Date/timePositionNaut miles runAvg speedWind from/ knotsBaromVisibWave heightAir tempDewpointWater temp
2014-Jul-26 03:33N 59°52' E 028°27'  
2014-Jul-23 21:32N 60°08' E 027°35'1514.0
2014-Jul-23 20:27N 59°60' E 027°09'1214.0
2014-Jul-23 19:33N 59°59' E 026°44'5014.4
2014-Jul-23 16:04N 59°48' E 025°07'2613.9
2014-Jul-23 14:11N 59°42' E 024°16'913.8
2014-Jul-23 13:33N 59°39' E 023°59'8613.8
2014-Jul-23 07:21N 58°57' E 021°34'1113.6
2014-Jul-23 06:32N 58°47' E 021°22'1313.8
2014-Jul-23 05:33N 58°36' E 021°09'1413.9
2014-Jul-23 04:32N 58°24' E 020°54'1413.9
2014-Jul-23 03:32N 58°13' E 020°40'1313.7
2014-Jul-23 02:33N 58°01' E 020°25'1313.5
2014-Jul-23 01:33N 57°51' E 020°10'1413.6
2014-Jul-23 00:34N 57°40' E 019°53'1313.5
2014-Jul-22 23:34N 57°30' E 019°37'1413.6
2014-Jul-22 22:34N 57°20' E 019°20'1413.5
2014-Jul-22 21:34N 57°10' E 019°04'1313.2
2014-Jul-22 20:34N 56°60' E 018°48'1313.2
2014-Jul-22 19:34N 56°50' E 018°32'1413.3
2014-Jul-22 18:32N 56°41' E 018°13'1313.6
2014-Jul-22 17:33N 56°33' E 017°55'1413.6
2014-Jul-22 16:31N 56°24' E 017°35'1313.8
2014-Jul-22 15:33N 56°16' E 017°16'1413.7
2014-Jul-22 14:34N 56°07' E 016°56'1313.4
2014-Jul-22 13:34N 56°00' E 016°36'1313.3
2014-Jul-22 12:34N 55°53' E 016°16'1313.3
2014-Jul-22 11:33N 55°47' E 015°55'1413.3
2014-Jul-22 10:32N 55°40' E 015°34'1313.3
2014-Jul-22 09:34N 55°34' E 015°13'1313.4
2014-Jul-22 08:34N 55°28' E 014°53'1313.4
2014-Jul-22 07:34N 55°20' E 014°33'1313.1
2014-Jul-22 06:34N 55°10' E 014°18'1313.2
2014-Jul-22 05:33N 55°10' E 013°55'1313.3
2014-Jul-22 04:33N 55°11' E 013°32'1313.4
2014-Jul-22 03:34N 55°11' E 013°08'1413.8
2014-Jul-22 02:33N 55°16' E 012°46'1211.7
2014-Jul-22 01:33N 55°27' E 012°40'1010.5
2014-Jul-22 00:33N 55°37' E 012°42'1211.8
2014-Jul-21 23:33N 55°49' E 012°42'1313.3
2014-Jul-21 22:33N 56°02' E 012°39'1111.5
2014-Jul-21 21:33N 56°10' E 012°23'1414.2
2014-Jul-21 20:33N 56°18' E 012°03'413.9
2014-Jul-21 20:18N 56°22' E 012°01'1114.1
2014-Jul-21 19:32N 56°32' E 011°57'1414.1
2014-Jul-21 18:33N 56°46' E 011°51'1514.2
2014-Jul-21 17:31N 56°60' E 011°42'1414.2
2014-Jul-21 16:33N 57°13' E 011°34'1414.6
2014-Jul-21 15:34N 57°26' E 011°24'1414.2
2014-Jul-21 14:33N 57°37' E 011°06'1313.4
2014-Jul-21 13:33N 57°46' E 010°47'1111.5
2014-Jul-21 12:33N 57°47' E 010°26'1414.1
2014-Jul-21 11:33N 57°46' E 009°60'1414.0
2014-Jul-21 10:32N 57°43' E 009°33'20013.3
2014-Jul-20 19:33N 54°42' E 006°60'1414.4
2014-Jul-20 18:34N 54°29' E 007°09'1514.5
2014-Jul-20 17:33N 54°17' E 007°23'1413.9
2014-Jul-20 16:33N 54°05' E 007°35'1413.2
2014-Jul-20 15:29N 53°53' E 007°47'910.1
2014-Jul-20 14:33N 53°48' E 008°01'1111.0
2014-Jul-20 13:34N 53°38' E 008°08'3 3.2
2014-Jul-20 12:33N 53°35' E 008°09'0 0.0
2014-Jul-20 11:33N 53°35' E 008°09'0 0.0
2014-Jul-20 10:33N 53°35' E 008°09'0 0.0
2014-Jul-20 09:33N 53°35' E 008°09'0 0.0
2014-Jul-20 08:06N 53°35' E 008°09'0 0.0
2014-Jul-20 07:24N 53°35' E 008°09'0 0.0
2014-Jul-20 06:33N 53°35' E 008°09'0 0.0
2014-Jul-20 05:33N 53°35' E 008°09'0 0.0
2014-Jul-20 04:27N 53°35' E 008°09'0 0.0
2014-Jul-20 03:27N 53°35' E 008°09'0 0.0
2014-Jul-20 02:33N 53°35' E 008°09'0 0.0
2014-Jul-20 01:30N 53°35' E 008°09'0 0.0
2014-Jul-20 00:33N 53°35' E 008°09'0 0.0
2014-Jul-19 23:33N 53°35' E 008°09'0 0.0
2014-Jul-19 22:33N 53°35' E 008°09'0 0.0
2014-Jul-19 21:33N 53°35' E 008°09'0 0.0
2014-Jul-19 20:33N 53°35' E 008°09'0 0.0
2014-Jul-19 19:30N 53°35' E 008°09'0 0.0
2014-Jul-19 18:21N 53°35' E 008°09'0 0.0
2014-Jul-19 17:33N 53°35' E 008°09'0 0.0
2014-Jul-19 15:21N 53°35' E 008°09'0 0.0
2014-Jul-19 14:33N 53°35' E 008°09'0 0.0
2014-Jul-19 13:30N 53°35' E 008°09'0 0.0
2014-Jul-19 11:30N 53°35' E 008°09'0 0.0
2014-Jul-19 09:09N 53°35' E 008°09'0 0.0
2014-Jul-19 08:33N 53°35' E 008°09'0 0.0
2014-Jul-19 07:33N 53°35' E 008°09'0 0.0
2014-Jul-19 06:33N 53°35' E 008°09'0 0.0
2014-Jul-19 05:33N 53°35' E 008°09'0 0.0
2014-Jul-19 04:33N 53°35' E 008°09'0 0.0
2014-Jul-19 03:33N 53°35' E 008°09'0 0.0
2014-Jul-19 02:33N 53°35' E 008°09'0 0.0
2014-Jul-19 01:33N 53°35' E 008°09'0 0.0
2014-Jul-19 00:33N 53°35' E 008°09'0 0.0
2014-Jul-18 23:33N 53°35' E 008°09'0 0.0
2014-Jul-18 22:33N 53°35' E 008°09'0 0.0
2014-Jul-18 21:33N 53°35' E 008°09'0 0.0
2014-Jul-18 20:33N 53°35' E 008°09'0 0.0
2014-Jul-18 19:33N 53°35' E 008°09'0 0.0
2014-Jul-18 18:33N 53°35' E 008°09'0 0.0
2014-Jul-18 17:33N 53°35' E 008°09'0 0.0
2014-Jul-18 16:33N 53°35' E 008°09'0 0.0
2014-Jul-18 15:33N 53°35' E 008°09'0 0.0
2014-Jul-18 14:33N 53°35' E 008°09'0 0.0
2014-Jul-18 13:33N 53°35' E 008°09'0 0.0
2014-Jul-18 12:30N 53°35' E 008°09'0 0.0
2014-Jul-18 11:32N 53°35' E 008°09'0 0.0
2014-Jul-18 10:33N 53°35' E 008°09'0 0.0
2014-Jul-18 09:33N 53°35' E 008°09'0 0.0
2014-Jul-18 08:33N 53°35' E 008°09'0 0.0
2014-Jul-18 07:33N 53°35' E 008°09'2 1.9
2014-Jul-18 06:33N 53°37' E 008°09'7 6.7
2014-Jul-18 05:33N 53°43' E 008°04'8 7.8
2014-Jul-18 04:33N 53°49' E 007°56'10 9.6
2014-Jul-18 03:33N 53°54' E 007°42'1010.3
2014-Jul-18 02:34N 54°03' E 007°33'7 7.2
2014-Jul-18 01:33N 54°09' E 007°27'10 9.9
2014-Jul-18 00:33N 54°18' E 007°20'1413.6
2014-Jul-17 23:33N 54°30' E 007°08'2322.4
2014-Jul-17 22:33N 54°52' E 006°60'1612.8
2014-Jul-17 21:16N 55°08' E 006°59'1112.8
2014-Jul-17 20:25N 55°19' E 006°59'0 0.6
2014-Jul-17 19:33N 55°20' E 006°59'1212.2
2014-Jul-17 18:33N 55°32' E 006°59'1212.1
2014-Jul-17 17:33N 55°44' E 006°60'1712.2
2014-Jul-17 16:11N 56°01' E 007°01'812.4
2014-Jul-17 15:33N 56°08' E 007°06'4212.7
2014-Jul-17 12:15N 56°47' E 007°34'1012.2
2014-Jul-17 11:28N 56°55' E 007°44'2412.2
2014-Jul-17 09:30N 57°11' E 008°16'1312.3
2014-Jul-17 08:26N 57°20' E 008°34'5711.6
2014-Jul-17 03:33N 57°47' E 010°08'1111.2
2014-Jul-17 02:33N 57°48' E 010°28'1110.9
2014-Jul-17 01:33N 57°48' E 010°49'1010.3
2014-Jul-17 00:33N 57°40' E 011°01'1111.5
2014-Jul-16 23:33N 57°32' E 011°17'1211.7
2014-Jul-16 22:33N 57°22' E 011°29'1212.1
2014-Jul-16 21:33N 57°11' E 011°37'1211.9
2014-Jul-16 20:33N 56°60' E 011°45'1211.7
2014-Jul-16 19:33N 56°49' E 011°52'1111.3
2014-Jul-16 18:33N 56°38' E 011°47'12310.2
2014-Jul-16 06:27N 54°38' E 010°55'1011.2
2014-Jul-16 05:33N 54°36' E 011°12'1211.9
2014-Jul-16 04:33N 54°31' E 011°31'1212.1
2014-Jul-16 03:33N 54°27' E 011°50'  
Track history (hours):
 
Tides and Currents Weather Stations Pressure Air Temp Water Temp Dewpoint Dewpoint Depression Visibility Wind Speed Wind Dir Waves Ship Positions

Zagreb

Last reported at 2014-Jul-26 03:33 UTC. Time now 2014-Jul-26 05:06 UTC.
Position N 59°52' E 028°27'.

Length 229 m; draft 8 m.

Type: Cargo ship. MMSI: 238249000.

Date/timePositionNaut miles runAvg speedWind from/ knotsBaromVisibWave heightAir tempDewpointWater temp
2014-Jul-26 03:33N 59°52' E 028°27'  
2014-Jul-23 21:32N 60°08' E 027°35'1514.0
2014-Jul-23 20:27N 59°60' E 027°09'1214.0
2014-Jul-23 19:33N 59°59' E 026°44'5014.4
2014-Jul-23 16:04N 59°48' E 025°07'2613.9
2014-Jul-23 14:11N 59°42' E 024°16'913.8
2014-Jul-23 13:33N 59°39' E 023°59'8613.8
2014-Jul-23 07:21N 58°57' E 021°34'1113.6
2014-Jul-23 06:32N 58°47' E 021°22'1313.8
2014-Jul-23 05:33N 58°36' E 021°09'1413.9
2014-Jul-23 04:32N 58°24' E 020°54'1413.9
2014-Jul-23 03:32N 58°13' E 020°40'1313.7
2014-Jul-23 02:33N 58°01' E 020°25'1313.5
2014-Jul-23 01:33N 57°51' E 020°10'1413.6
2014-Jul-23 00:34N 57°40' E 019°53'1313.5
2014-Jul-22 23:34N 57°30' E 019°37'1413.6
2014-Jul-22 22:34N 57°20' E 019°20'1413.5
2014-Jul-22 21:34N 57°10' E 019°04'1313.2
2014-Jul-22 20:34N 56°60' E 018°48'1313.2
2014-Jul-22 19:34N 56°50' E 018°32'1413.3
2014-Jul-22 18:32N 56°41' E 018°13'1313.6
2014-Jul-22 17:33N 56°33' E 017°55'1413.6
2014-Jul-22 16:31N 56°24' E 017°35'1313.8
2014-Jul-22 15:33N 56°16' E 017°16'1413.7
2014-Jul-22 14:34N 56°07' E 016°56'1313.4
2014-Jul-22 13:34N 56°00' E 016°36'1313.3
2014-Jul-22 12:34N 55°53' E 016°16'1313.3
2014-Jul-22 11:33N 55°47' E 015°55'1413.3
2014-Jul-22 10:32N 55°40' E 015°34'1313.3
2014-Jul-22 09:34N 55°34' E 015°13'1313.4
2014-Jul-22 08:34N 55°28' E 014°53'1313.4
2014-Jul-22 07:34N 55°20' E 014°33'1313.1
2014-Jul-22 06:34N 55°10' E 014°18'1313.2
2014-Jul-22 05:33N 55°10' E 013°55'1313.3
2014-Jul-22 04:33N 55°11' E 013°32'1313.4
2014-Jul-22 03:34N 55°11' E 013°08'1413.8
2014-Jul-22 02:33N 55°16' E 012°46'1211.7
2014-Jul-22 01:33N 55°27' E 012°40'1010.5
2014-Jul-22 00:33N 55°37' E 012°42'1211.8
2014-Jul-21 23:33N 55°49' E 012°42'1313.3
2014-Jul-21 22:33N 56°02' E 012°39'1111.5
2014-Jul-21 21:33N 56°10' E 012°23'1414.2
2014-Jul-21 20:33N 56°18' E 012°03'413.9
2014-Jul-21 20:18N 56°22' E 012°01'1114.1
2014-Jul-21 19:32N 56°32' E 011°57'1414.1
2014-Jul-21 18:33N 56°46' E 011°51'1514.2
2014-Jul-21 17:31N 56°60' E 011°42'1414.2
2014-Jul-21 16:33N 57°13' E 011°34'1414.6
2014-Jul-21 15:34N 57°26' E 011°24'1414.2
2014-Jul-21 14:33N 57°37' E 011°06'1313.4
2014-Jul-21 13:33N 57°46' E 010°47'1111.5
2014-Jul-21 12:33N 57°47' E 010°26'1414.1
2014-Jul-21 11:33N 57°46' E 009°60'1414.0
2014-Jul-21 10:32N 57°43' E 009°33'20013.3
2014-Jul-20 19:33N 54°42' E 006°60'1414.4
2014-Jul-20 18:34N 54°29' E 007°09'1514.5
2014-Jul-20 17:33N 54°17' E 007°23'1413.9
2014-Jul-20 16:33N 54°05' E 007°35'1413.2
2014-Jul-20 15:29N 53°53' E 007°47'910.1
2014-Jul-20 14:33N 53°48' E 008°01'1111.0
2014-Jul-20 13:34N 53°38' E 008°08'3 3.2
2014-Jul-20 12:33N 53°35' E 008°09'0 0.0
2014-Jul-20 11:33N 53°35' E 008°09'0 0.0
2014-Jul-20 10:33N 53°35' E 008°09'0 0.0
2014-Jul-20 09:33N 53°35' E 008°09'0 0.0
2014-Jul-20 08:06N 53°35' E 008°09'0 0.0
2014-Jul-20 07:24N 53°35' E 008°09'0 0.0
2014-Jul-20 06:33N 53°35' E 008°09'0 0.0
2014-Jul-20 05:33N 53°35' E 008°09'0 0.0
2014-Jul-20 04:27N 53°35' E 008°09'0 0.0
2014-Jul-20 03:27N 53°35' E 008°09'0 0.0
2014-Jul-20 02:33N 53°35' E 008°09'0 0.0
2014-Jul-20 01:30N 53°35' E 008°09'0 0.0
2014-Jul-20 00:33N 53°35' E 008°09'0 0.0
2014-Jul-19 23:33N 53°35' E 008°09'0 0.0
2014-Jul-19 22:33N 53°35' E 008°09'0 0.0
2014-Jul-19 21:33N 53°35' E 008°09'0 0.0
2014-Jul-19 20:33N 53°35' E 008°09'0 0.0
2014-Jul-19 19:30N 53°35' E 008°09'0 0.0
2014-Jul-19 18:21N 53°35' E 008°09'0 0.0
2014-Jul-19 17:33N 53°35' E 008°09'0 0.0
2014-Jul-19 15:21N 53°35' E 008°09'0 0.0
2014-Jul-19 14:33N 53°35' E 008°09'0 0.0
2014-Jul-19 13:30N 53°35' E 008°09'0 0.0
2014-Jul-19 11:30N 53°35' E 008°09'0 0.0
2014-Jul-19 09:09N 53°35' E 008°09'0 0.0
2014-Jul-19 08:33N 53°35' E 008°09'0 0.0
2014-Jul-19 07:33N 53°35' E 008°09'0 0.0
2014-Jul-19 06:33N 53°35' E 008°09'0 0.0
2014-Jul-19 05:33N 53°35' E 008°09'0 0.0
2014-Jul-19 04:33N 53°35' E 008°09'0 0.0
2014-Jul-19 03:33N 53°35' E 008°09'0 0.0
2014-Jul-19 02:33N 53°35' E 008°09'0 0.0
2014-Jul-19 01:33N 53°35' E 008°09'0 0.0
2014-Jul-19 00:33N 53°35' E 008°09'0 0.0
2014-Jul-18 23:33N 53°35' E 008°09'0 0.0
2014-Jul-18 22:33N 53°35' E 008°09'0 0.0
2014-Jul-18 21:33N 53°35' E 008°09'0 0.0
2014-Jul-18 20:33N 53°35' E 008°09'0 0.0
2014-Jul-18 19:33N 53°35' E 008°09'0 0.0
2014-Jul-18 18:33N 53°35' E 008°09'0 0.0
2014-Jul-18 17:33N 53°35' E 008°09'0 0.0
2014-Jul-18 16:33N 53°35' E 008°09'0 0.0
2014-Jul-18 15:33N 53°35' E 008°09'0 0.0
2014-Jul-18 14:33N 53°35' E 008°09'0 0.0
2014-Jul-18 13:33N 53°35' E 008°09'0 0.0
2014-Jul-18 12:30N 53°35' E 008°09'0 0.0
2014-Jul-18 11:32N 53°35' E 008°09'0 0.0
2014-Jul-18 10:33N 53°35' E 008°09'0 0.0
2014-Jul-18 09:33N 53°35' E 008°09'0 0.0
2014-Jul-18 08:33N 53°35' E 008°09'0 0.0
2014-Jul-18 07:33N 53°35' E 008°09'2 1.9
2014-Jul-18 06:33N 53°37' E 008°09'7 6.7
2014-Jul-18 05:33N 53°43' E 008°04'8 7.8
2014-Jul-18 04:33N 53°49' E 007°56'10 9.6
2014-Jul-18 03:33N 53°54' E 007°42'1010.3
2014-Jul-18 02:34N 54°03' E 007°33'7 7.2
2014-Jul-18 01:33N 54°09' E 007°27'10 9.9
2014-Jul-18 00:33N 54°18' E 007°20'1413.6
2014-Jul-17 23:33N 54°30' E 007°08'2322.4
2014-Jul-17 22:33N 54°52' E 006°60'1612.8
2014-Jul-17 21:16N 55°08' E 006°59'1112.8
2014-Jul-17 20:25N 55°19' E 006°59'0 0.6
2014-Jul-17 19:33N 55°20' E 006°59'1212.2
2014-Jul-17 18:33N 55°32' E 006°59'1212.1
2014-Jul-17 17:33N 55°44' E 006°60'1712.2
2014-Jul-17 16:11N 56°01' E 007°01'812.4
2014-Jul-17 15:33N 56°08' E 007°06'4212.7
2014-Jul-17 12:15N 56°47' E 007°34'1012.2
2014-Jul-17 11:28N 56°55' E 007°44'2412.2
2014-Jul-17 09:30N 57°11' E 008°16'1312.3
2014-Jul-17 08:26N 57°20' E 008°34'5711.6
2014-Jul-17 03:33N 57°47' E 010°08'1111.2
2014-Jul-17 02:33N 57°48' E 010°28'1110.9
2014-Jul-17 01:33N 57°48' E 010°49'1010.3
2014-Jul-17 00:33N 57°40' E 011°01'1111.5
2014-Jul-16 23:33N 57°32' E 011°17'1211.7
2014-Jul-16 22:33N 57°22' E 011°29'1212.1
2014-Jul-16 21:33N 57°11' E 011°37'1211.9
2014-Jul-16 20:33N 56°60' E 011°45'1211.7
2014-Jul-16 19:33N 56°49' E 011°52'1111.3
2014-Jul-16 18:33N 56°38' E 011°47'12310.2
2014-Jul-16 06:27N 54°38' E 010°55'1011.2
2014-Jul-16 05:33N 54°36' E 011°12'1211.9
2014-Jul-16 04:33N 54°31' E 011°31'1212.1
2014-Jul-16 03:33N 54°27' E 011°50'  

Dump ship's entire track history